sensor_id;sensor_type;location;lat;lon;timestamp;P1;durP1;ratioP1;P2;durP2;ratioP2
78646;SDS011;67961;43.460;3.762;2023-04-01T00:01:47;16.90;;;3.83;;
78646;SDS011;67961;43.460;3.762;2023-04-01T00:04:13;14.35;;;3.80;;
78646;SDS011;67961;43.460;3.762;2023-04-01T00:06:38;12.80;;;3.83;;
78646;SDS011;67961;43.460;3.762;2023-04-01T00:09:04;18.38;;;4.13;;
78646;SDS011;67961;43.460;3.762;2023-04-01T00:11:30;12.57;;;3.30;;
78646;SDS011;67961;43.460;3.762;2023-04-01T00:13:55;12.05;;;3.80;;
78646;SDS011;67961;43.460;3.762;2023-04-01T00:16:21;10.95;;;3.95;;
78646;SDS011;67961;43.460;3.762;2023-04-01T00:18:47;10.23;;;3.40;;
78646;SDS011;67961;43.460;3.762;2023-04-01T00:21:14;11.95;;;3.63;;
78646;SDS011;67961;43.460;3.762;2023-04-01T00:23:40;15.98;;;4.93;;
78646;SDS011;67961;43.460;3.762;2023-04-01T00:26:06;14.13;;;3.67;;
78646;SDS011;67961;43.460;3.762;2023-04-01T00:28:33;11.85;;;3.50;;
78646;SDS011;67961;43.460;3.762;2023-04-01T00:31:03;16.85;;;4.45;;
78646;SDS011;67961;43.460;3.762;2023-04-01T00:33:32;16.00;;;4.28;;
78646;SDS011;67961;43.460;3.762;2023-04-01T00:36:11;14.18;;;3.58;;
78646;SDS011;67961;43.460;3.762;2023-04-01T00:38:38;10.82;;;3.20;;
78646;SDS011;67961;43.460;3.762;2023-04-01T00:41:05;21.50;;;5.22;;
78646;SDS011;67961;43.460;3.762;2023-04-01T00:43:31;15.45;;;3.70;;
78646;SDS011;67961;43.460;3.762;2023-04-01T00:45:58;15.05;;;3.70;;
78646;SDS011;67961;43.460;3.762;2023-04-01T00:48:31;19.02;;;4.13;;
78646;SDS011;67961;43.460;3.762;2023-04-01T00:51:01;12.52;;;3.75;;
78646;SDS011;67961;43.460;3.762;2023-04-01T00:53:32;13.48;;;3.55;;
78646;SDS011;67961;43.460;3.762;2023-04-01T00:56:03;20.92;;;3.88;;
78646;SDS011;67961;43.460;3.762;2023-04-01T00:58:33;14.70;;;3.83;;
78646;SDS011;67961;43.460;3.762;2023-04-01T01:01:03;10.80;;;3.70;;
78646;SDS011;67961;43.460;3.762;2023-04-01T01:03:30;11.23;;;3.15;;
78646;SDS011;67961;43.460;3.762;2023-04-01T01:11:42;10.30;;;3.53;;
78646;SDS011;67961;43.460;3.762;2023-04-01T01:14:25;12.93;;;3.10;;
78646;SDS011;67961;43.460;3.762;2023-04-01T01:17:15;12.38;;;3.47;;
78646;SDS011;67961;43.460;3.762;2023-04-01T01:20:05;15.18;;;3.63;;
78646;SDS011;67961;43.460;3.762;2023-04-01T01:36:38;16.85;;;5.05;;
78646;SDS011;67961;43.460;3.762;2023-04-01T01:39:07;18.60;;;4.72;;
78646;SDS011;67961;43.460;3.762;2023-04-01T01:41:34;15.75;;;3.90;;
78646;SDS011;67961;43.460;3.762;2023-04-01T01:44:03;13.10;;;3.80;;
78646;SDS011;67961;43.460;3.762;2023-04-01T01:46:33;15.45;;;4.60;;
78646;SDS011;67961;43.460;3.762;2023-04-01T01:49:00;19.70;;;5.43;;
78646;SDS011;67961;43.460;3.762;2023-04-01T01:51:30;15.18;;;4.75;;
78646;SDS011;67961;43.460;3.762;2023-04-01T01:53:56;16.27;;;4.43;;
78646;SDS011;67961;43.460;3.762;2023-04-01T01:56:22;14.68;;;4.32;;
78646;SDS011;67961;43.460;3.762;2023-04-01T01:58:52;16.58;;;4.30;;
78646;SDS011;67961;43.460;3.762;2023-04-01T02:01:24;11.68;;;3.35;;
78646;SDS011;67961;43.460;3.762;2023-04-01T02:03:53;16.10;;;4.55;;
78646;SDS011;67961;43.460;3.762;2023-04-01T02:06:24;14.82;;;4.03;;
78646;SDS011;67961;43.460;3.762;2023-04-01T02:08:54;13.40;;;4.15;;
78646;SDS011;67961;43.460;3.762;2023-04-01T02:11:28;17.98;;;5.18;;
78646;SDS011;67961;43.460;3.762;2023-04-01T02:17:12;14.48;;;3.83;;
78646;SDS011;67961;43.460;3.762;2023-04-01T02:19:43;16.75;;;4.15;;
78646;SDS011;67961;43.460;3.762;2023-04-01T02:22:12;15.38;;;3.63;;
78646;SDS011;67961;43.460;3.762;2023-04-01T02:24:41;14.57;;;4.55;;
78646;SDS011;67961;43.460;3.762;2023-04-01T02:27:11;14.85;;;4.18;;
78646;SDS011;67961;43.460;3.762;2023-04-01T02:29:37;14.80;;;3.75;;
78646;SDS011;67961;43.460;3.762;2023-04-01T02:32:03;11.45;;;3.78;;
78646;SDS011;67961;43.460;3.762;2023-04-01T02:34:30;16.65;;;5.45;;
78646;SDS011;67961;43.460;3.762;2023-04-01T02:36:56;9.45;;;2.92;;
78646;SDS011;67961;43.460;3.762;2023-04-01T02:39:22;15.85;;;3.55;;
78646;SDS011;67961;43.460;3.762;2023-04-01T02:41:50;12.50;;;3.53;;
78646;SDS011;67961;43.460;3.762;2023-04-01T02:44:16;15.05;;;3.38;;
78646;SDS011;67961;43.460;3.762;2023-04-01T02:46:41;9.60;;;3.22;;
78646;SDS011;67961;43.460;3.762;2023-04-01T02:49:07;16.38;;;3.78;;
78646;SDS011;67961;43.460;3.762;2023-04-01T02:51:33;16.15;;;4.50;;
78646;SDS011;67961;43.460;3.762;2023-04-01T02:53:59;15.55;;;3.92;;
78646;SDS011;67961;43.460;3.762;2023-04-01T02:56:25;14.15;;;4.00;;
78646;SDS011;67961;43.460;3.762;2023-04-01T02:58:51;12.38;;;3.90;;
78646;SDS011;67961;43.460;3.762;2023-04-01T03:01:17;15.82;;;4.30;;
78646;SDS011;67961;43.460;3.762;2023-04-01T03:03:43;11.90;;;3.42;;
78646;SDS011;67961;43.460;3.762;2023-04-01T03:06:09;12.88;;;3.45;;
78646;SDS011;67961;43.460;3.762;2023-04-01T03:08:36;16.25;;;3.90;;
78646;SDS011;67961;43.460;3.762;2023-04-01T03:11:02;11.07;;;4.35;;
78646;SDS011;67961;43.460;3.762;2023-04-01T03:13:28;14.60;;;4.50;;
78646;SDS011;67961;43.460;3.762;2023-04-01T03:15:54;13.68;;;3.70;;
78646;SDS011;67961;43.460;3.762;2023-04-01T03:18:20;16.92;;;3.92;;
78646;SDS011;67961;43.460;3.762;2023-04-01T03:20:46;14.07;;;3.65;;
78646;SDS011;67961;43.460;3.762;2023-04-01T03:23:12;17.20;;;4.47;;
78646;SDS011;67961;43.460;3.762;2023-04-01T03:25:37;14.25;;;3.58;;
78646;SDS011;67961;43.460;3.762;2023-04-01T03:28:03;17.17;;;4.63;;
78646;SDS011;67961;43.460;3.762;2023-04-01T03:30:29;14.80;;;3.95;;
78646;SDS011;67961;43.460;3.762;2023-04-01T03:32:56;18.65;;;4.32;;
78646;SDS011;67961;43.460;3.762;2023-04-01T03:35:22;16.02;;;4.53;;
78646;SDS011;67961;43.460;3.762;2023-04-01T03:37:50;12.50;;;3.85;;
78646;SDS011;67961;43.460;3.762;2023-04-01T03:40:17;15.65;;;4.00;;
78646;SDS011;67961;43.460;3.762;2023-04-01T03:42:42;15.70;;;3.78;;
78646;SDS011;67961;43.460;3.762;2023-04-01T03:45:08;12.40;;;3.85;;
78646;SDS011;67961;43.460;3.762;2023-04-01T03:47:34;14.80;;;3.70;;
78646;SDS011;67961;43.460;3.762;2023-04-01T03:50:00;14.23;;;3.50;;
78646;SDS011;67961;43.460;3.762;2023-04-01T03:52:26;15.77;;;4.03;;
78646;SDS011;67961;43.460;3.762;2023-04-01T03:54:52;11.68;;;3.30;;
78646;SDS011;67961;43.460;3.762;2023-04-01T03:57:18;9.27;;;3.25;;
78646;SDS011;67961;43.460;3.762;2023-04-01T03:59:43;16.73;;;3.80;;
78646;SDS011;67961;43.460;3.762;2023-04-01T04:02:09;16.05;;;4.10;;
78646;SDS011;67961;43.460;3.762;2023-04-01T04:04:35;13.05;;;3.80;;
78646;SDS011;67961;43.460;3.762;2023-04-01T04:07:00;18.20;;;4.22;;
78646;SDS011;67961;43.460;3.762;2023-04-01T04:09:26;16.40;;;4.68;;
78646;SDS011;67961;43.460;3.762;2023-04-01T04:11:52;16.58;;;4.60;;
78646;SDS011;67961;43.460;3.762;2023-04-01T04:14:17;17.88;;;5.07;;
78646;SDS011;67961;43.460;3.762;2023-04-01T04:16:43;16.85;;;4.15;;
78646;SDS011;67961;43.460;3.762;2023-04-01T04:19:09;12.38;;;3.65;;
78646;SDS011;67961;43.460;3.762;2023-04-01T04:21:35;17.35;;;3.85;;
78646;SDS011;67961;43.460;3.762;2023-04-01T04:24:01;10.60;;;3.45;;
78646;SDS011;67961;43.460;3.762;2023-04-01T04:26:27;14.15;;;3.35;;
78646;SDS011;67961;43.460;3.762;2023-04-01T04:28:53;13.40;;;3.55;;
78646;SDS011;67961;43.460;3.762;2023-04-01T04:31:21;12.65;;;2.95;;
78646;SDS011;67961;43.460;3.762;2023-04-01T04:33:47;12.60;;;3.60;;
78646;SDS011;67961;43.460;3.762;2023-04-01T04:36:13;7.38;;;3.00;;
78646;SDS011;67961;43.460;3.762;2023-04-01T04:38:42;9.80;;;3.28;;
78646;SDS011;67961;43.460;3.762;2023-04-01T04:41:08;10.40;;;2.78;;
78646;SDS011;67961;43.460;3.762;2023-04-01T04:43:38;10.38;;;2.88;;
78646;SDS011;67961;43.460;3.762;2023-04-01T04:46:08;11.13;;;2.97;;
78646;SDS011;67961;43.460;3.762;2023-04-01T04:48:35;11.90;;;2.90;;
78646;SDS011;67961;43.460;3.762;2023-04-01T04:51:01;10.65;;;3.28;;
78646;SDS011;67961;43.460;3.762;2023-04-01T04:53:27;13.32;;;3.35;;
78646;SDS011;67961;43.460;3.762;2023-04-01T04:55:53;10.82;;;3.35;;
78646;SDS011;67961;43.460;3.762;2023-04-01T04:58:19;9.43;;;2.65;;
78646;SDS011;67961;43.460;3.762;2023-04-01T05:00:45;9.13;;;2.45;;
78646;SDS011;67961;43.460;3.762;2023-04-01T05:03:11;9.38;;;2.58;;
78646;SDS011;67961;43.460;3.762;2023-04-01T05:05:38;7.88;;;2.92;;
78646;SDS011;67961;43.460;3.762;2023-04-01T05:08:04;9.40;;;2.65;;
78646;SDS011;67961;43.460;3.762;2023-04-01T05:10:30;8.25;;;2.88;;
78646;SDS011;67961;43.460;3.762;2023-04-01T05:12:56;10.10;;;3.15;;
78646;SDS011;67961;43.460;3.762;2023-04-01T05:15:23;7.45;;;2.35;;
78646;SDS011;67961;43.460;3.762;2023-04-01T05:17:48;11.98;;;2.70;;
78646;SDS011;67961;43.460;3.762;2023-04-01T05:20:14;11.93;;;2.78;;
78646;SDS011;67961;43.460;3.762;2023-04-01T05:22:41;9.48;;;2.85;;
78646;SDS011;67961;43.460;3.762;2023-04-01T05:25:07;12.00;;;2.72;;
78646;SDS011;67961;43.460;3.762;2023-04-01T05:27:32;13.35;;;3.10;;
78646;SDS011;67961;43.460;3.762;2023-04-01T05:30:01;9.48;;;2.53;;
78646;SDS011;67961;43.460;3.762;2023-04-01T05:32:27;13.32;;;4.13;;
78646;SDS011;67961;43.460;3.762;2023-04-01T05:34:53;12.30;;;3.75;;
78646;SDS011;67961;43.460;3.762;2023-04-01T05:37:19;13.48;;;3.15;;
78646;SDS011;67961;43.460;3.762;2023-04-01T05:39:45;8.85;;;2.67;;
78646;SDS011;67961;43.460;3.762;2023-04-01T05:42:11;11.13;;;3.00;;
78646;SDS011;67961;43.460;3.762;2023-04-01T05:44:36;10.32;;;3.17;;
78646;SDS011;67961;43.460;3.762;2023-04-01T05:47:03;8.95;;;2.97;;
78646;SDS011;67961;43.460;3.762;2023-04-01T05:49:29;12.27;;;4.07;;
78646;SDS011;67961;43.460;3.762;2023-04-01T05:51:55;10.45;;;3.67;;
78646;SDS011;67961;43.460;3.762;2023-04-01T05:54:21;11.90;;;2.85;;
78646;SDS011;67961;43.460;3.762;2023-04-01T05:56:47;16.98;;;3.53;;
78646;SDS011;67961;43.460;3.762;2023-04-01T05:59:12;10.13;;;2.80;;
78646;SDS011;67961;43.460;3.762;2023-04-01T06:01:38;10.02;;;3.10;;
78646;SDS011;67961;43.460;3.762;2023-04-01T06:04:04;13.98;;;3.15;;
78646;SDS011;67961;43.460;3.762;2023-04-01T06:06:31;11.45;;;2.97;;
78646;SDS011;67961;43.460;3.762;2023-04-01T06:08:58;10.05;;;2.95;;
78646;SDS011;67961;43.460;3.762;2023-04-01T06:17:05;13.77;;;4.10;;
78646;SDS011;67961;43.460;3.762;2023-04-01T06:23:05;16.20;;;3.63;;
78646;SDS011;67961;43.460;3.762;2023-04-01T06:52:49;13.82;;;3.63;;
78646;SDS011;67961;43.460;3.762;2023-04-01T06:55:38;10.20;;;3.28;;
78646;SDS011;67961;43.460;3.762;2023-04-01T06:58:13;14.60;;;3.92;;
78646;SDS011;67961;43.460;3.762;2023-04-01T07:00:53;12.02;;;3.50;;
78646;SDS011;67961;43.460;3.762;2023-04-01T07:03:32;14.63;;;5.85;;
78646;SDS011;67961;43.460;3.762;2023-04-01T07:06:05;9.82;;;3.20;;
78646;SDS011;67961;43.460;3.762;2023-04-01T07:08:35;14.27;;;4.28;;
78646;SDS011;67961;43.460;3.762;2023-04-01T07:11:15;10.68;;;3.63;;
78646;SDS011;67961;43.460;3.762;2023-04-01T07:13:55;11.88;;;4.63;;
78646;SDS011;67961;43.460;3.762;2023-04-01T07:24:29;16.45;;;5.30;;
78646;SDS011;67961;43.460;3.762;2023-04-01T07:26:59;16.00;;;4.22;;
78646;SDS011;67961;43.460;3.762;2023-04-01T07:29:25;13.68;;;3.47;;
78646;SDS011;67961;43.460;3.762;2023-04-01T07:37:02;14.00;;;3.47;;
78646;SDS011;67961;43.460;3.762;2023-04-01T07:42:15;15.77;;;4.28;;
78646;SDS011;67961;43.460;3.762;2023-04-01T08:01:11;10.25;;;2.55;;
78646;SDS011;67961;43.460;3.762;2023-04-01T08:06:27;12.02;;;3.13;;
78646;SDS011;67961;43.460;3.762;2023-04-01T08:14:41;13.40;;;4.00;;
78646;SDS011;67961;43.460;3.762;2023-04-01T08:17:30;9.18;;;3.30;;
78646;SDS011;67961;43.460;3.762;2023-04-01T08:20:34;10.32;;;2.83;;
78646;SDS011;67961;43.460;3.762;2023-04-01T08:23:17;11.88;;;2.85;;
78646;SDS011;67961;43.460;3.762;2023-04-01T08:25:51;13.15;;;2.95;;
78646;SDS011;67961;43.460;3.762;2023-04-01T08:28:39;9.68;;;3.05;;
78646;SDS011;67961;43.460;3.762;2023-04-01T08:31:13;13.48;;;3.20;;
78646;SDS011;67961;43.460;3.762;2023-04-01T08:33:47;11.30;;;2.80;;
78646;SDS011;67961;43.460;3.762;2023-04-01T08:38:50;9.32;;;3.05;;
78646;SDS011;67961;43.460;3.762;2023-04-01T08:47:08;8.85;;;3.20;;
78646;SDS011;67961;43.460;3.762;2023-04-01T09:11:12;10.57;;;2.85;;
78646;SDS011;67961;43.460;3.762;2023-04-01T09:17:09;11.32;;;2.90;;
78646;SDS011;67961;43.460;3.762;2023-04-01T09:22:20;6.18;;;2.08;;
78646;SDS011;67961;43.460;3.762;2023-04-01T09:40:00;8.07;;;2.75;;
78646;SDS011;67961;43.460;3.762;2023-04-01T09:44:58;6.75;;;2.30;;
78646;SDS011;67961;43.460;3.762;2023-04-01T09:50:27;8.43;;;2.72;;
78646;SDS011;67961;43.460;3.762;2023-04-01T09:54:02;7.82;;;2.00;;
78646;SDS011;67961;43.460;3.762;2023-04-01T10:13:17;7.65;;;2.72;;
78646;SDS011;67961;43.460;3.762;2023-04-01T10:35:47;9.32;;;3.33;;
78646;SDS011;67961;43.460;3.762;2023-04-01T11:24:23;8.00;;;2.83;;
78646;SDS011;67961;43.460;3.762;2023-04-01T11:29:41;9.50;;;2.80;;
78646;SDS011;67961;43.460;3.762;2023-04-01T11:40:32;12.20;;;3.55;;
78646;SDS011;67961;43.460;3.762;2023-04-01T11:48:28;9.63;;;3.50;;
78646;SDS011;67961;43.460;3.762;2023-04-01T12:10:47;9.05;;;3.22;;
78646;SDS011;67961;43.460;3.762;2023-04-01T12:13:21;11.55;;;3.13;;
78646;SDS011;67961;43.460;3.762;2023-04-01T12:16:05;11.25;;;3.70;;
78646;SDS011;67961;43.460;3.762;2023-04-01T12:21:37;8.80;;;3.30;;
78646;SDS011;67961;43.460;3.762;2023-04-01T12:27:05;10.70;;;3.17;;
78646;SDS011;67961;43.460;3.762;2023-04-01T12:43:51;11.65;;;3.47;;
78646;SDS011;67961;43.460;3.762;2023-04-01T12:46:50;14.55;;;3.10;;
78646;SDS011;67961;43.460;3.762;2023-04-01T13:03:46;10.55;;;3.10;;
78646;SDS011;67961;43.460;3.762;2023-04-01T13:24:56;6.55;;;2.38;;
78646;SDS011;67961;43.460;3.762;2023-04-01T13:27:47;6.20;;;2.72;;
78646;SDS011;67961;43.460;3.762;2023-04-01T13:32:58;7.07;;;2.10;;
78646;SDS011;67961;43.460;3.762;2023-04-01T13:38:55;4.35;;;1.77;;
78646;SDS011;67961;43.460;3.762;2023-04-01T13:47:24;4.35;;;1.60;;
78646;SDS011;67961;43.460;3.762;2023-04-01T13:55:34;4.07;;;1.60;;
78646;SDS011;67961;43.460;3.762;2023-04-01T14:03:37;3.70;;;1.92;;
78646;SDS011;67961;43.460;3.762;2023-04-01T14:09:42;4.75;;;1.60;;
78646;SDS011;67961;43.460;3.762;2023-04-01T14:12:31;4.20;;;1.63;;
78646;SDS011;67961;43.460;3.762;2023-04-01T14:18:19;4.68;;;1.73;;
78646;SDS011;67961;43.460;3.762;2023-04-01T14:20:53;4.05;;;1.52;;
78646;SDS011;67961;43.460;3.762;2023-04-01T14:29:27;15.20;;;3.27;;
78646;SDS011;67961;43.460;3.762;2023-04-01T14:34:31;5.57;;;1.75;;
78646;SDS011;67961;43.460;3.762;2023-04-01T14:48:38;14.88;;;3.58;;
78646;SDS011;67961;43.460;3.762;2023-04-01T14:50:45;4.35;;;2.10;;
78646;SDS011;67961;43.460;3.762;2023-04-01T14:55:51;8.18;;;2.30;;
78646;SDS011;67961;43.460;3.762;2023-04-01T14:58:21;6.90;;;1.73;;
78646;SDS011;67961;43.460;3.762;2023-04-01T15:03:54;12.52;;;7.03;;
78646;SDS011;67961;43.460;3.762;2023-04-01T15:09:06;5.38;;;2.95;;
78646;SDS011;67961;43.460;3.762;2023-04-01T15:25:33;12.82;;;3.28;;
78646;SDS011;67961;43.460;3.762;2023-04-01T15:41:48;5.05;;;2.33;;
78646;SDS011;67961;43.460;3.762;2023-04-01T15:45:02;2.83;;;1.60;;
78646;SDS011;67961;43.460;3.762;2023-04-01T15:49:53;4.95;;;1.75;;
78646;SDS011;67961;43.460;3.762;2023-04-01T15:52:43;12.75;;;2.75;;
78646;SDS011;67961;43.460;3.762;2023-04-01T15:55:22;8.88;;;3.35;;
78646;SDS011;67961;43.460;3.762;2023-04-01T16:06:52;3.28;;;1.30;;
78646;SDS011;67961;43.460;3.762;2023-04-01T16:10:22;2.38;;;1.20;;
78646;SDS011;67961;43.460;3.762;2023-04-01T16:12:37;1.35;;;0.90;;
78646;SDS011;67961;43.460;3.762;2023-04-01T16:15:14;3.25;;;2.05;;
78646;SDS011;67961;43.460;3.762;2023-04-01T16:23:36;6.18;;;2.22;;
78646;SDS011;67961;43.460;3.762;2023-04-01T16:26:21;1.73;;;1.30;;
78646;SDS011;67961;43.460;3.762;2023-04-01T16:28:55;2.90;;;1.42;;
78646;SDS011;67961;43.460;3.762;2023-04-01T16:37:15;3.35;;;1.40;;
78646;SDS011;67961;43.460;3.762;2023-04-01T16:40:24;4.05;;;1.35;;
78646;SDS011;67961;43.460;3.762;2023-04-01T16:44:08;4.68;;;1.45;;
78646;SDS011;67961;43.460;3.762;2023-04-01T16:46:33;2.58;;;1.40;;
78646;SDS011;67961;43.460;3.762;2023-04-01T16:48:57;4.53;;;1.38;;
78646;SDS011;67961;43.460;3.762;2023-04-01T16:51:52;11.13;;;1.55;;
78646;SDS011;67961;43.460;3.762;2023-04-01T16:54:35;1.13;;;1.00;;
78646;SDS011;67961;43.460;3.762;2023-04-01T16:57:19;1.92;;;1.10;;
78646;SDS011;67961;43.460;3.762;2023-04-01T17:02:25;0.77;;;0.73;;
78646;SDS011;67961;43.460;3.762;2023-04-01T17:05:16;0.98;;;0.80;;
78646;SDS011;67961;43.460;3.762;2023-04-01T17:07:48;1.45;;;0.85;;
78646;SDS011;67961;43.460;3.762;2023-04-01T17:10:35;1.67;;;1.20;;
78646;SDS011;67961;43.460;3.762;2023-04-01T17:13:24;0.95;;;0.90;;
78646;SDS011;67961;43.460;3.762;2023-04-01T17:24:29;2.15;;;1.55;;
78646;SDS011;67961;43.460;3.762;2023-04-01T17:35:30;2.40;;;1.20;;
78646;SDS011;67961;43.460;3.762;2023-04-01T17:43:52;4.22;;;1.52;;
78646;SDS011;67961;43.460;3.762;2023-04-01T17:46:29;3.15;;;1.38;;
78646;SDS011;67961;43.460;3.762;2023-04-01T17:49:25;6.55;;;1.58;;
78646;SDS011;67961;43.460;3.762;2023-04-01T17:54:39;6.18;;;1.48;;
78646;SDS011;67961;43.460;3.762;2023-04-01T17:59:49;2.40;;;1.10;;
78646;SDS011;67961;43.460;3.762;2023-04-01T18:05:17;7.72;;;1.75;;
78646;SDS011;67961;43.460;3.762;2023-04-01T18:11:15;4.35;;;1.40;;
78646;SDS011;67961;43.460;3.762;2023-04-01T18:16:47;3.05;;;1.70;;
78646;SDS011;67961;43.460;3.762;2023-04-01T18:27:38;3.22;;;1.48;;
78646;SDS011;67961;43.460;3.762;2023-04-01T18:30:36;4.65;;;1.30;;
78646;SDS011;67961;43.460;3.762;2023-04-01T18:38:40;3.80;;;2.08;;
78646;SDS011;67961;43.460;3.762;2023-04-01T18:41:28;2.70;;;1.25;;
78646;SDS011;67961;43.460;3.762;2023-04-01T18:44:22;2.78;;;1.45;;
78646;SDS011;67961;43.460;3.762;2023-04-01T18:49:29;4.35;;;1.20;;
78646;SDS011;67961;43.460;3.762;2023-04-01T19:05:57;4.15;;;1.30;;
78646;SDS011;67961;43.460;3.762;2023-04-01T19:08:34;1.20;;;0.90;;
78646;SDS011;67961;43.460;3.762;2023-04-01T19:11:06;1.15;;;0.95;;
78646;SDS011;67961;43.460;3.762;2023-04-01T19:17:10;0.90;;;0.80;;
78646;SDS011;67961;43.460;3.762;2023-04-01T19:19:56;3.25;;;1.27;;
78646;SDS011;67961;43.460;3.762;2023-04-01T19:25:57;2.85;;;1.13;;
78646;SDS011;67961;43.460;3.762;2023-04-01T19:36:38;1.33;;;1.20;;
78646;SDS011;67961;43.460;3.762;2023-04-01T19:50:39;1.75;;;1.20;;
78646;SDS011;67961;43.460;3.762;2023-04-01T19:53:22;2.33;;;1.20;;
78646;SDS011;67961;43.460;3.762;2023-04-01T19:56:07;2.03;;;1.05;;
78646;SDS011;67961;43.460;3.762;2023-04-01T20:01:20;2.88;;;1.35;;
78646;SDS011;67961;43.460;3.762;2023-04-01T20:04:07;1.88;;;1.13;;
78646;SDS011;67961;43.460;3.762;2023-04-01T20:14:55;3.55;;;1.20;;
78646;SDS011;67961;43.460;3.762;2023-04-01T20:17:40;3.58;;;1.45;;
78646;SDS011;67961;43.460;3.762;2023-04-01T20:27:56;6.45;;;2.17;;
78646;SDS011;67961;43.460;3.762;2023-04-01T20:42:11;3.38;;;1.38;;
78646;SDS011;67961;43.460;3.762;2023-04-01T20:53:04;4.03;;;1.60;;
78646;SDS011;67961;43.460;3.762;2023-04-01T20:55:51;3.63;;;1.40;;
78646;SDS011;67961;43.460;3.762;2023-04-01T21:25:30;1.58;;;1.13;;
78646;SDS011;67961;43.460;3.762;2023-04-01T21:36:34;2.22;;;1.10;;
78646;SDS011;67961;43.460;3.762;2023-04-01T21:39:35;2.30;;;1.10;;
78646;SDS011;67961;43.460;3.762;2023-04-01T21:48:12;2.60;;;1.20;;
78646;SDS011;67961;43.460;3.762;2023-04-01T21:51:09;4.07;;;1.37;;
78646;SDS011;67961;43.460;3.762;2023-04-01T21:57:12;2.45;;;1.30;;
78646;SDS011;67961;43.460;3.762;2023-04-01T22:07:58;2.65;;;1.00;;
78646;SDS011;67961;43.460;3.762;2023-04-01T22:10:59;1.07;;;0.97;;
78646;SDS011;67961;43.460;3.762;2023-04-01T22:13:46;1.90;;;1.20;;
78646;SDS011;67961;43.460;3.762;2023-04-01T22:19:19;2.35;;;1.38;;
78646;SDS011;67961;43.460;3.762;2023-04-01T22:22:39;1.50;;;0.80;;
78646;SDS011;67961;43.460;3.762;2023-04-01T22:28:03;1.50;;;0.90;;
78646;SDS011;67961;43.460;3.762;2023-04-01T22:30:59;0.80;;;0.80;;
78646;SDS011;67961;43.460;3.762;2023-04-01T22:44:06;1.27;;;1.20;;
78646;SDS011;67961;43.460;3.762;2023-04-01T22:49:32;1.85;;;0.73;;
78646;SDS011;67961;43.460;3.762;2023-04-01T22:52:13;0.88;;;0.85;;
78646;SDS011;67961;43.460;3.762;2023-04-01T23:00:01;0.70;;;0.70;;
78646;SDS011;67961;43.460;3.762;2023-04-01T23:02:39;1.83;;;1.05;;
78646;SDS011;67961;43.460;3.762;2023-04-01T23:05:26;0.47;;;0.47;;
78646;SDS011;67961;43.460;3.762;2023-04-01T23:10:51;0.50;;;0.50;;
78646;SDS011;67961;43.460;3.762;2023-04-01T23:13:37;0.80;;;0.80;;
78646;SDS011;67961;43.460;3.762;2023-04-01T23:16:13;0.85;;;0.80;;
78646;SDS011;67961;43.460;3.762;2023-04-01T23:21:26;0.45;;;0.45;;
78646;SDS011;67961;43.460;3.762;2023-04-01T23:29:36;0.60;;;0.60;;
78646;SDS011;67961;43.460;3.762;2023-04-01T23:32:14;0.52;;;0.52;;
78646;SDS011;67961;43.460;3.762;2023-04-01T23:34:46;0.60;;;0.60;;
78646;SDS011;67961;43.460;3.762;2023-04-01T23:37:14;0.60;;;0.60;;
78646;SDS011;67961;43.460;3.762;2023-04-01T23:39:44;0.60;;;0.60;;
78646;SDS011;67961;43.460;3.762;2023-04-01T23:44:42;0.60;;;0.60;;
78646;SDS011;67961;43.460;3.762;2023-04-01T23:47:12;0.70;;;0.63;;
78646;SDS011;67961;43.460;3.762;2023-04-01T23:49:44;0.70;;;0.70;;
78646;SDS011;67961;43.460;3.762;2023-04-01T23:54:48;1.07;;;0.60;;
78646;SDS011;67961;43.460;3.762;2023-04-01T23:57:32;0.60;;;0.60;;
